createdAt,value
2022-10-25T00:09:23.946Z,18.20
2022-10-25T00:14:26.454Z,18.00
2022-10-25T00:19:25.971Z,17.85
2022-10-25T00:24:22.698Z,17.91
2022-10-25T00:34:20.076Z,17.26
2022-10-25T00:39:16.787Z,17.32
2022-10-25T00:44:31.841Z,17.35
2022-10-25T00:49:32.244Z,17.48
2022-10-25T00:54:33.986Z,17.12
2022-10-25T00:59:31.761Z,17.35
2022-10-25T01:04:29.946Z,17.38
2022-10-25T01:09:27.319Z,17.23
2022-10-25T01:14:26.837Z,17.61
2022-10-25T01:19:53.109Z,17.86
2022-10-25T01:25:08.704Z,17.21
2022-10-25T01:30:08.875Z,17.15
2022-10-25T01:35:13.017Z,17.64
2022-10-25T01:40:16.404Z,17.67
2022-10-25T01:45:15.625Z,17.66
2022-10-25T01:50:14.582Z,17.67
2022-10-25T01:55:12.962Z,17.67
2022-10-25T02:00:13.827Z,17.83
2022-10-25T02:05:13.596Z,17.77
2022-10-25T02:10:13.431Z,18.04
2022-10-25T02:15:13.107Z,17.89
2022-10-25T02:20:10.554Z,17.40
2022-10-25T02:25:08.529Z,16.88
2022-10-25T02:30:06.997Z,16.66
2022-10-25T02:35:06.056Z,16.80
2022-10-25T02:40:02.806Z,17.09
2022-10-25T02:44:59.389Z,17.49
2022-10-25T02:49:58.804Z,17.64
2022-10-25T02:54:55.328Z,17.44
2022-10-25T02:59:51.804Z,17.09
2022-10-25T03:04:49.655Z,17.25
2022-10-25T03:09:47.133Z,17.61
2022-10-25T03:14:43.813Z,17.73
2022-10-25T03:19:41.539Z,17.90
2022-10-25T03:24:38.253Z,17.88
2022-10-25T03:29:36.765Z,17.92
2022-10-25T03:34:34.226Z,17.84
2022-10-25T03:39:30.875Z,17.92
2022-10-25T03:44:27.368Z,17.82
2022-10-25T03:49:26.374Z,17.69
2022-10-25T03:54:25.519Z,17.65
2022-10-25T03:59:24.954Z,17.75
2022-10-25T04:04:21.548Z,18.01
2022-10-25T04:09:18.824Z,18.11
2022-10-25T04:14:16.413Z,18.12
2022-10-25T04:19:13.274Z,18.19
2022-10-25T04:24:10.099Z,18.11
2022-10-25T04:29:07.503Z,18.08
2022-10-25T04:34:05.227Z,18.07
2022-10-25T04:39:02.273Z,18.14
2022-10-25T04:43:59.038Z,18.05
2022-10-25T04:48:56.701Z,17.95
2022-10-25T04:53:53.461Z,17.78
2022-10-25T04:58:50.238Z,17.75
2022-10-25T05:03:49.297Z,17.96
2022-10-25T05:08:50.042Z,17.97
2022-10-25T05:13:46.847Z,17.73
2022-10-25T05:18:45.052Z,17.43
2022-10-25T05:23:44.852Z,17.63
2022-10-25T05:28:44.839Z,17.44
2022-10-25T05:33:44.532Z,17.40
2022-10-25T05:38:44.497Z,16.66
2022-10-25T05:43:43.625Z,16.34
2022-10-25T05:48:45.775Z,15.86
2022-10-25T05:53:45.770Z,15.88
2022-10-25T05:58:42.675Z,15.54
2022-10-25T06:03:39.525Z,15.26
2022-10-25T06:08:38.937Z,15.30
2022-10-25T06:13:39.863Z,15.35
2022-10-25T06:18:44.163Z,15.45
2022-10-25T06:23:42.108Z,15.29
2022-10-25T06:28:40.290Z,15.19
2022-10-25T06:33:37.265Z,15.56
2022-10-25T06:38:34.056Z,15.85
2022-10-25T06:43:32.482Z,16.21
2022-10-25T06:48:29.793Z,16.46
2022-10-25T06:53:26.634Z,16.25
2022-10-25T06:58:26.247Z,16.24
2022-10-25T07:03:31.643Z,15.89
2022-10-25T07:08:28.307Z,16.06
2022-10-25T07:13:27.132Z,15.93
2022-10-25T07:18:27.161Z,16.04
2022-10-25T07:23:23.947Z,16.40
2022-10-25T07:28:21.085Z,16.62
2022-10-25T07:33:21.197Z,16.74
2022-10-25T07:38:23.337Z,17.14
2022-10-25T07:43:23.393Z,17.25
2022-10-25T07:48:23.395Z,17.41
2022-10-25T07:53:23.374Z,17.15
2022-10-25T07:58:22.657Z,17.10
2022-10-25T08:03:29.475Z,17.10
2022-10-25T08:08:28.010Z,16.99
2022-10-25T08:13:24.991Z,17.13
2022-10-25T08:18:22.108Z,16.98
2022-10-25T08:23:20.606Z,17.40
2022-10-25T08:28:17.981Z,17.58
2022-10-25T08:33:14.802Z,17.91
2022-10-25T08:38:11.467Z,18.19
2022-10-25T08:43:16.145Z,18.62
2022-10-25T08:48:15.115Z,18.72
2022-10-25T08:53:14.723Z,19.14
2022-10-25T08:58:14.005Z,19.31
2022-10-25T09:03:15.413Z,19.53
2022-10-25T09:08:26.491Z,19.73
2022-10-25T09:13:29.861Z,19.97
2022-10-25T09:18:34.708Z,20.06
2022-10-25T09:23:33.373Z,20.09
2022-10-25T09:28:36.095Z,20.35
2022-10-25T09:33:35.577Z,20.62
2022-10-25T09:38:38.287Z,20.54
2022-10-25T09:43:37.636Z,20.83
2022-10-25T09:48:39.347Z,20.82
2022-10-25T09:53:44.113Z,21.01
2022-10-25T09:58:41.754Z,21.25
2022-10-25T10:03:42.073Z,21.45
2022-10-25T10:08:41.142Z,21.52
2022-10-25T10:13:40.248Z,21.64
2022-10-25T10:18:37.409Z,21.65
2022-10-25T10:23:38.102Z,21.79
2022-10-25T10:28:38.400Z,21.70
2022-10-25T10:33:37.664Z,21.86
2022-10-25T10:38:34.191Z,21.89
2022-10-25T10:43:33.632Z,22.06
2022-10-25T10:48:41.933Z,22.18
2022-10-25T10:53:41.278Z,22.29
2022-10-25T10:59:02.826Z,22.30
2022-10-25T11:04:04.059Z,22.18
2022-10-25T11:09:12.195Z,22.35
2022-10-25T11:14:14.891Z,22.35
2022-10-25T11:19:24.046Z,22.40
2022-10-25T11:24:26.789Z,22.48
2022-10-25T11:29:36.664Z,22.48
2022-10-25T11:34:41.675Z,22.57
2022-10-25T11:39:48.596Z,22.86
2022-10-25T11:45:09.539Z,22.94
2022-10-25T11:50:20.648Z,22.96
2022-10-25T11:55:26.642Z,23.17
2022-10-25T12:00:32.593Z,23.12
2022-10-25T12:05:35.971Z,23.26
2022-10-25T12:10:38.147Z,23.30
2022-10-25T12:15:37.277Z,23.51
2022-10-25T12:20:36.855Z,23.59
2022-10-25T12:25:37.061Z,23.62
2022-10-25T12:30:35.656Z,23.56
2022-10-25T12:35:41.162Z,23.73
2022-10-25T12:40:41.660Z,23.91
2022-10-25T12:45:51.069Z,24.03
2022-10-25T12:51:06.344Z,24.14
2022-10-25T12:56:22.435Z,24.12
2022-10-25T13:01:35.669Z,24.14
2022-10-25T13:06:36.211Z,24.12
2022-10-25T13:11:41.608Z,24.20
2022-10-25T13:16:39.685Z,24.31
2022-10-25T13:21:53.192Z,24.36
2022-10-25T13:27:04.951Z,24.46
2022-10-25T13:32:10.186Z,24.60
2022-10-25T13:37:23.953Z,24.62
2022-10-25T13:42:26.037Z,24.43
2022-10-25T13:47:28.493Z,24.48
2022-10-25T13:52:28.614Z,24.34
2022-10-25T13:57:43.885Z,24.25
2022-10-25T14:02:55.283Z,24.09
2022-10-25T14:07:53.235Z,24.08
2022-10-25T14:12:53.063Z,24.00
2022-10-25T14:17:57.353Z,24.08
2022-10-25T14:22:56.534Z,23.99
2022-10-25T14:28:04.435Z,23.83
2022-10-25T14:33:04.321Z,23.90
2022-10-25T14:38:04.735Z,23.94
2022-10-25T14:43:21.191Z,23.83
2022-10-25T14:48:17.776Z,23.76
2022-10-25T14:53:17.689Z,23.86
2022-10-25T14:58:14.305Z,23.79
2022-10-25T15:03:11.286Z,23.85
2022-10-25T15:08:18.297Z,23.79
2022-10-25T15:13:20.402Z,23.72
2022-10-25T15:18:27.156Z,23.57
2022-10-25T15:23:26.367Z,23.76
2022-10-25T15:28:23.848Z,23.58
2022-10-25T15:33:22.936Z,23.57
2022-10-25T15:38:19.819Z,23.26
2022-10-25T15:43:16.476Z,23.39
2022-10-25T15:48:15.269Z,23.29
2022-10-25T15:53:13.651Z,23.38
2022-10-25T15:58:10.792Z,23.35
2022-10-25T16:03:08.243Z,23.26
2022-10-25T16:08:08.029Z,23.19
2022-10-25T16:13:08.828Z,23.30
2022-10-25T16:18:05.628Z,23.40
2022-10-25T16:23:02.217Z,23.30
2022-10-25T16:28:02.720Z,23.39
2022-10-25T16:33:00.799Z,23.22
2022-10-25T16:37:57.724Z,23.15
2022-10-25T16:42:57.742Z,23.02
2022-10-25T16:47:56.492Z,22.85
2022-10-25T16:52:53.582Z,22.75
2022-10-25T16:57:50.696Z,22.53
2022-10-25T17:02:47.926Z,22.49
2022-10-25T17:07:46.599Z,22.34
2022-10-25T17:12:44.127Z,22.19
2022-10-25T17:17:41.155Z,22.17
2022-10-25T17:22:39.196Z,22.16
2022-10-25T17:27:39.256Z,22.22
2022-10-25T17:32:36.229Z,22.05
2022-10-25T17:37:34.343Z,21.99
2022-10-25T17:42:34.194Z,21.67
2022-10-25T17:47:36.873Z,21.80
2022-10-25T17:52:33.503Z,21.71
2022-10-25T17:57:30.183Z,21.69
2022-10-25T18:02:26.913Z,21.65
2022-10-25T18:07:28.962Z,21.51
2022-10-25T18:12:29.729Z,21.58
2022-10-25T18:17:26.224Z,21.56
2022-10-25T18:22:24.472Z,21.52
2022-10-25T18:27:21.072Z,21.36
2022-10-25T18:32:17.710Z,21.43
2022-10-25T18:37:17.148Z,21.41
2022-10-25T18:42:14.360Z,21.70
2022-10-25T18:47:13.118Z,21.54
2022-10-25T18:52:09.680Z,21.46
2022-10-25T18:57:06.286Z,21.55
2022-10-25T19:02:05.107Z,21.44
2022-10-25T19:07:01.862Z,21.35
2022-10-25T19:11:58.391Z,21.27
2022-10-25T19:16:55.559Z,21.25
2022-10-25T19:21:52.875Z,21.23
2022-10-25T19:26:49.777Z,21.10
2022-10-25T19:31:51.361Z,21.09
2022-10-25T19:36:48.319Z,20.98
2022-10-25T19:41:59.346Z,21.01
2022-10-25T19:46:55.964Z,20.98
2022-10-25T19:51:52.592Z,20.66
2022-10-25T19:56:53.459Z,20.77
2022-10-25T20:01:53.902Z,20.66
2022-10-25T20:06:52.525Z,20.58
2022-10-25T20:11:49.003Z,20.44
2022-10-25T20:16:45.531Z,20.30
2022-10-25T20:21:43.758Z,20.25
2022-10-25T20:26:41.159Z,20.26
2022-10-25T20:31:40.583Z,19.92
2022-10-25T20:36:37.955Z,19.81
2022-10-25T20:41:37.836Z,19.93
2022-10-25T20:46:34.680Z,19.61
2022-10-25T20:51:31.137Z,19.61
2022-10-25T20:56:30.694Z,19.76
2022-10-25T21:01:29.204Z,19.57
2022-10-25T21:06:25.985Z,19.76
2022-10-25T21:11:22.503Z,19.60
2022-10-25T21:16:21.607Z,19.57
2022-10-25T21:21:21.258Z,19.36
2022-10-25T21:26:17.983Z,19.36
2022-10-25T21:31:15.343Z,19.11
2022-10-25T21:36:14.088Z,19.11
2022-10-25T21:41:15.806Z,18.92
2022-10-25T21:46:17.258Z,18.85
2022-10-25T21:51:15.045Z,18.80
2022-10-25T21:56:12.986Z,18.76
2022-10-25T22:01:11.642Z,18.68
2022-10-25T22:06:11.888Z,18.70
2022-10-25T22:11:10.823Z,18.62
2022-10-25T22:16:10.570Z,18.56
2022-10-25T22:21:08.661Z,18.62
2022-10-25T22:26:06.376Z,18.64
2022-10-25T22:31:03.856Z,18.60
2022-10-25T22:36:02.223Z,18.43
2022-10-25T22:41:01.308Z,18.38
2022-10-25T22:46:00.176Z,18.37
2022-10-25T22:50:59.532Z,18.50
2022-10-25T22:56:01.046Z,18.41
2022-10-25T23:06:01.645Z,18.50
2022-10-25T23:11:03.067Z,18.40
2022-10-25T23:16:01.844Z,18.34
2022-10-25T23:20:59.501Z,18.37
2022-10-25T23:25:59.870Z,18.48
2022-10-25T23:30:56.464Z,18.47
2022-10-25T23:35:52.997Z,18.38
2022-10-25T23:40:49.516Z,18.41
2022-10-25T23:45:49.308Z,18.33
2022-10-25T23:50:45.917Z,18.37
2022-10-25T23:55:44.904Z,18.25
